San Clemente, CA (92673)

2:01 PM PST on November 24, 2014 (GMT -0800)
The Coast | Change Station
CLOSE
Current Station
Personal Weather Station
Location: San Clemente, CA
Elevation: 350 ft
Nearby Weather Stations

Elev 350 ft 33.45 °N, 117.64 °W | Updated 11 seconds ago

Scattered Clouds
Scattered Clouds
70.6 °F
Feels Like 77 °F
N
7.0
Wind Variable Wind from WSW
Gusts 12.0 mph

Today
High -- | Low -- °F
--% Chance of Precip.
Yesterday
High -- | Low -- °F
Precip. -- in
6:30 AM 4:43 PM
Waxing Crescent, 7% visible
Pressure 30.14 in
Visibility 9.0 miles
Clouds Scattered Clouds 30000 ft
Heat Index 77 °F
Dew Point 46 °F
Humidity 42%
Rainfall 0.00 in
Snow Depth Not available.
UV 2 out of 12
Pollen 3.30 out of 12
Air Quality Not available.
Flu Activity Not available.
METAR KNFG 242154Z 24008KT 9SM SCT300 26/M06 A3015 RMK AO2 SLP207 T02561056 $

More Conditions Fewer Conditions

Pressure 30.14 in
Visibility 9.0 miles
Clouds Scattered Clouds 30000 ft
Heat Index 77 °F
Dew Point 46 °F
Humidity 42%
Rainfall 0.00 in
Snow Depth Not available.
UV 2 out of 12
Pollen 3.30 out of 12
Air Quality Not available.
Flu Activity Not available.
METAR KNFG 242154Z 24008KT 9SM SCT300 26/M06 A3015 RMK AO2 SLP207 T02561056 $

More Conditions Fewer Conditions

10-Day Weather Forecast

Almanac

Astronomy

Nov. 24, 2014 Rise Set
Actual Time
Civil Twilight
Nautical Twilight
Astronomical Twilight
Moon
Length of Visible Light
Length of Day
Tomorrow will be .
, % of the Moon is Illuminated

Today's Extremes

State Highs State Lows

Community

WunderPhotos

Upload Photos

1,773,423 photos uploaded!

WunderBlogs® & News

Nearby

Air Quality

  Air Quality AQ Index Pollutant
Not available.

Snow Depth

Station Depth Elevation

Earthquake Activity

City Distance Mag. Time & Date
Minimum magnitude displayed is 2.5.

Coastal Water Temperatures

Place Temperature

Nearby Weather Stations